sensor_id;sensor_type;location;lat;lon;timestamp;temperature;humidity
26613;DHT22;14248;57.652;11.908;2023-04-15T10:08:02;14.00;99.90
26613;DHT22;14248;57.652;11.908;2023-04-15T11:00:13;14.90;99.90
26613;DHT22;14248;57.652;11.908;2023-04-15T11:03:04;17.80;99.30
26613;DHT22;14248;57.652;11.908;2023-04-15T11:05:50;17.90;98.50
26613;DHT22;14248;57.652;11.908;2023-04-15T11:08:16;18.00;98.20
26613;DHT22;14248;57.652;11.908;2023-04-15T12:38:30;18.10;97.80
26613;DHT22;14248;57.652;11.908;2023-04-15T12:40:57;19.70;80.60
26613;DHT22;14248;57.652;11.908;2023-04-15T12:43:24;19.50;81.20
26613;DHT22;14248;57.652;11.908;2023-04-15T12:45:50;19.40;82.30
26613;DHT22;14248;57.652;11.908;2023-04-15T12:48:15;19.30;81.60
26613;DHT22;14248;57.652;11.908;2023-04-15T12:50:41;19.30;82.40
26613;DHT22;14248;57.652;11.908;2023-04-15T13:22:23;19.40;82.60
26613;DHT22;14248;57.652;11.908;2023-04-15T13:24:49;20.60;76.00
26613;DHT22;14248;57.652;11.908;2023-04-15T13:44:24;20.40;76.40
26613;DHT22;14248;57.652;11.908;2023-04-15T13:46:49;21.50;76.80
26613;DHT22;14248;57.652;11.908;2023-04-15T13:49:16;22.00;74.90
26613;DHT22;14248;57.652;11.908;2023-04-15T13:51:41;22.20;73.10
26613;DHT22;14248;57.652;11.908;2023-04-15T13:54:09;22.20;73.20
26613;DHT22;14248;57.652;11.908;2023-04-15T13:56:35;22.10;72.10
26613;DHT22;14248;57.652;11.908;2023-04-15T13:59:01;21.90;70.70
26613;DHT22;14248;57.652;11.908;2023-04-15T14:01:28;21.50;70.60
26613;DHT22;14248;57.652;11.908;2023-04-15T14:03:53;21.30;71.80
26613;DHT22;14248;57.652;11.908;2023-04-15T14:06:19;21.60;72.50
26613;DHT22;14248;57.652;11.908;2023-04-15T14:08:45;22.00;71.80
26613;DHT22;14248;57.652;11.908;2023-04-15T14:11:11;22.10;70.70
26613;DHT22;14248;57.652;11.908;2023-04-15T14:13:36;21.90;69.90
26613;DHT22;14248;57.652;11.908;2023-04-15T14:16:02;21.60;70.00
26613;DHT22;14248;57.652;11.908;2023-04-15T14:18:28;21.10;70.30
26613;DHT22;14248;57.652;11.908;2023-04-15T14:20:55;20.70;70.50
26613;DHT22;14248;57.652;11.908;2023-04-15T14:23:21;20.30;70.40
26613;DHT22;14248;57.652;11.908;2023-04-15T14:25:47;20.00;70.90
26613;DHT22;14248;57.652;11.908;2023-04-15T14:40:27;19.70;71.90
26613;DHT22;14248;57.652;11.908;2023-04-15T14:42:53;19.10;73.70
26613;DHT22;14248;57.652;11.908;2023-04-15T14:45:18;19.00;73.80
26613;DHT22;14248;57.652;11.908;2023-04-15T14:47:44;18.90;74.50
26613;DHT22;14248;57.652;11.908;2023-04-15T14:50:10;18.90;74.80
26613;DHT22;14248;57.652;11.908;2023-04-15T14:52:35;18.90;75.20
26613;DHT22;14248;57.652;11.908;2023-04-15T14:55:09;18.90;74.70
26613;DHT22;14248;57.652;11.908;2023-04-15T14:57:35;18.80;74.00
26613;DHT22;14248;57.652;11.908;2023-04-15T15:00:03;18.70;74.30
26613;DHT22;14248;57.652;11.908;2023-04-15T15:02:29;18.60;74.70
26613;DHT22;14248;57.652;11.908;2023-04-15T15:29:17;18.50;75.10
26613;DHT22;14248;57.652;11.908;2023-04-15T15:31:43;18.10;77.90
26613;DHT22;14248;57.652;11.908;2023-04-15T15:43:53;18.20;77.50
26613;DHT22;14248;57.652;11.908;2023-04-15T15:46:19;18.90;76.90
26613;DHT22;14248;57.652;11.908;2023-04-15T15:48:45;19.00;76.60
26613;DHT22;14248;57.652;11.908;2023-04-15T16:01:07;19.00;76.10
26613;DHT22;14248;57.652;11.908;2023-04-15T16:03:33;22.50;73.70
26613;DHT22;14248;57.652;11.908;2023-04-15T16:05:59;23.60;69.30
26613;DHT22;14248;57.652;11.908;2023-04-15T16:08:31;24.50;66.20
26613;DHT22;14248;57.652;11.908;2023-04-15T16:10:57;25.00;64.10
26613;DHT22;14248;57.652;11.908;2023-04-15T16:13:24;24.90;62.10
26613;DHT22;14248;57.652;11.908;2023-04-15T16:15:50;24.20;61.30
26613;DHT22;14248;57.652;11.908;2023-04-15T16:18:16;23.40;62.10
26613;DHT22;14248;57.652;11.908;2023-04-15T16:20:41;22.60;63.90
26613;DHT22;14248;57.652;11.908;2023-04-15T16:23:12;21.90;65.20
26613;DHT22;14248;57.652;11.908;2023-04-15T16:25:38;21.30;66.60
26613;DHT22;14248;57.652;11.908;2023-04-15T16:28:03;20.80;67.50
